sensor_id;sensor_type;location;lat;lon;timestamp;temperature;humidity
10296;DHT22;5193;51.032;6.356;2023-07-29T01:29:47;18.10;99.90
10296;DHT22;5193;51.032;6.356;2023-07-29T01:49:04;18.20;99.90
10296;DHT22;5193;51.032;6.356;2023-07-29T01:51:31;18.10;99.90
10296;DHT22;5193;51.032;6.356;2023-07-29T01:53:58;18.10;99.90
10296;DHT22;5193;51.032;6.356;2023-07-29T01:56:25;18.10;99.90
10296;DHT22;5193;51.032;6.356;2023-07-29T01:58:50;18.10;99.90
10296;DHT22;5193;51.032;6.356;2023-07-29T02:01:16;18.20;99.90
10296;DHT22;5193;51.032;6.356;2023-07-29T02:03:42;18.20;99.90
10296;DHT22;5193;51.032;6.356;2023-07-29T02:06:07;18.20;99.90
10296;DHT22;5193;51.032;6.356;2023-07-29T02:08:33;18.20;99.90
10296;DHT22;5193;51.032;6.356;2023-07-29T02:10:59;18.20;99.90
10296;DHT22;5193;51.032;6.356;2023-07-29T02:13:24;18.20;99.90
10296;DHT22;5193;51.032;6.356;2023-07-29T02:15:50;18.20;99.90
10296;DHT22;5193;51.032;6.356;2023-07-29T02:18:16;18.20;99.90
10296;DHT22;5193;51.032;6.356;2023-07-29T02:20:41;18.20;99.90
10296;DHT22;5193;51.032;6.356;2023-07-29T02:23:14;18.20;99.90
10296;DHT22;5193;51.032;6.356;2023-07-29T02:25:40;18.20;99.90
10296;DHT22;5193;51.032;6.356;2023-07-29T02:28:05;18.30;99.90
10296;DHT22;5193;51.032;6.356;2023-07-29T02:30:31;18.30;99.90
10296;DHT22;5193;51.032;6.356;2023-07-29T02:32:57;18.30;99.90
10296;DHT22;5193;51.032;6.356;2023-07-29T02:35:22;18.40;99.90
10296;DHT22;5193;51.032;6.356;2023-07-29T02:37:48;18.40;99.90
10296;DHT22;5193;51.032;6.356;2023-07-29T02:40:13;18.50;99.90
10296;DHT22;5193;51.032;6.356;2023-07-29T02:42:39;18.50;99.90
10296;DHT22;5193;51.032;6.356;2023-07-29T02:45:05;18.60;99.90
10296;DHT22;5193;51.032;6.356;2023-07-29T02:47:35;18.50;99.90
10296;DHT22;5193;51.032;6.356;2023-07-29T02:50:00;18.50;99.90
10296;DHT22;5193;51.032;6.356;2023-07-29T02:52:26;18.50;99.90
10296;DHT22;5193;51.032;6.356;2023-07-29T02:54:51;18.50;99.90
10296;DHT22;5193;51.032;6.356;2023-07-29T02:57:17;18.50;99.90
10296;DHT22;5193;51.032;6.356;2023-07-29T02:59:43;18.50;99.90
10296;DHT22;5193;51.032;6.356;2023-07-29T03:02:08;18.50;99.90
10296;DHT22;5193;51.032;6.356;2023-07-29T03:04:34;18.60;99.90
10296;DHT22;5193;51.032;6.356;2023-07-29T03:06:59;18.60;99.90
10296;DHT22;5193;51.032;6.356;2023-07-29T03:09:25;18.60;99.90
10296;DHT22;5193;51.032;6.356;2023-07-29T03:11:50;18.60;99.90
10296;DHT22;5193;51.032;6.356;2023-07-29T03:14:18;18.60;99.90
10296;DHT22;5193;51.032;6.356;2023-07-29T03:16:43;18.50;99.90
10296;DHT22;5193;51.032;6.356;2023-07-29T03:19:09;18.50;99.90
10296;DHT22;5193;51.032;6.356;2023-07-29T03:21:34;18.50;99.90
10296;DHT22;5193;51.032;6.356;2023-07-29T03:24:00;18.50;99.90
10296;DHT22;5193;51.032;6.356;2023-07-29T03:26:26;18.50;99.90
10296;DHT22;5193;51.032;6.356;2023-07-29T03:28:51;18.40;99.90
10296;DHT22;5193;51.032;6.356;2023-07-29T03:31:17;18.40;99.90
10296;DHT22;5193;51.032;6.356;2023-07-29T03:33:42;18.40;99.90
10296;DHT22;5193;51.032;6.356;2023-07-29T03:36:08;18.30;99.90
10296;DHT22;5193;51.032;6.356;2023-07-29T03:38:34;18.30;99.90
10296;DHT22;5193;51.032;6.356;2023-07-29T03:41:00;18.30;99.90
10296;DHT22;5193;51.032;6.356;2023-07-29T03:43:28;18.30;99.90
10296;DHT22;5193;51.032;6.356;2023-07-29T03:45:54;18.20;99.90
10296;DHT22;5193;51.032;6.356;2023-07-29T03:48:20;18.20;99.90
10296;DHT22;5193;51.032;6.356;2023-07-29T03:50:46;18.20;99.90
10296;DHT22;5193;51.032;6.356;2023-07-29T03:53:11;18.20;99.90
10296;DHT22;5193;51.032;6.356;2023-07-29T03:55:37;18.20;99.90
10296;DHT22;5193;51.032;6.356;2023-07-29T03:58:02;18.20;99.90
10296;DHT22;5193;51.032;6.356;2023-07-29T04:00:28;18.10;99.90
10296;DHT22;5193;51.032;6.356;2023-07-29T04:02:54;18.10;99.90
10296;DHT22;5193;51.032;6.356;2023-07-29T04:05:20;18.10;99.90
10296;DHT22;5193;51.032;6.356;2023-07-29T04:08:10;18.10;99.90
10296;DHT22;5193;51.032;6.356;2023-07-29T04:10:38;18.10;99.90
10296;DHT22;5193;51.032;6.356;2023-07-29T04:13:06;18.10;99.90
10296;DHT22;5193;51.032;6.356;2023-07-29T04:15:32;18.00;99.90
10296;DHT22;5193;51.032;6.356;2023-07-29T04:17:58;18.00;99.90
10296;DHT22;5193;51.032;6.356;2023-07-29T04:20:23;18.00;99.90
10296;DHT22;5193;51.032;6.356;2023-07-29T04:22:49;18.00;99.90
10296;DHT22;5193;51.032;6.356;2023-07-29T04:25:14;18.00;99.90
10296;DHT22;5193;51.032;6.356;2023-07-29T04:27:40;18.00;99.90
10296;DHT22;5193;51.032;6.356;2023-07-29T04:30:06;18.00;99.90
10296;DHT22;5193;51.032;6.356;2023-07-29T04:32:32;18.00;99.90
10296;DHT22;5193;51.032;6.356;2023-07-29T04:34:57;17.90;99.90
10296;DHT22;5193;51.032;6.356;2023-07-29T04:37:24;17.90;99.90
10296;DHT22;5193;51.032;6.356;2023-07-29T04:39:49;18.00;99.90
10296;DHT22;5193;51.032;6.356;2023-07-29T04:42:15;17.90;99.90
10296;DHT22;5193;51.032;6.356;2023-07-29T04:44:40;17.90;99.90
10296;DHT22;5193;51.032;6.356;2023-07-29T04:47:07;17.90;99.90
10296;DHT22;5193;51.032;6.356;2023-07-29T04:49:32;17.90;99.90
10296;DHT22;5193;51.032;6.356;2023-07-29T04:51:58;17.90;99.90
10296;DHT22;5193;51.032;6.356;2023-07-29T04:54:24;17.90;99.90
10296;DHT22;5193;51.032;6.356;2023-07-29T04:56:49;17.90;99.90
10296;DHT22;5193;51.032;6.356;2023-07-29T04:59:15;17.90;99.90
10296;DHT22;5193;51.032;6.356;2023-07-29T05:01:40;17.90;99.90
10296;DHT22;5193;51.032;6.356;2023-07-29T05:04:08;17.90;99.90
10296;DHT22;5193;51.032;6.356;2023-07-29T05:06:34;17.90;99.90
10296;DHT22;5193;51.032;6.356;2023-07-29T05:09:11;17.90;99.90
10296;DHT22;5193;51.032;6.356;2023-07-29T05:11:37;17.80;99.90
10296;DHT22;5193;51.032;6.356;2023-07-29T05:14:03;17.80;99.90
10296;DHT22;5193;51.032;6.356;2023-07-29T05:16:30;17.80;99.90
10296;DHT22;5193;51.032;6.356;2023-07-29T05:18:55;17.80;99.90
10296;DHT22;5193;51.032;6.356;2023-07-29T05:21:21;17.80;99.90
10296;DHT22;5193;51.032;6.356;2023-07-29T05:23:46;17.80;99.90
10296;DHT22;5193;51.032;6.356;2023-07-29T05:26:15;17.70;99.90
10296;DHT22;5193;51.032;6.356;2023-07-29T05:28:44;17.80;99.90
10296;DHT22;5193;51.032;6.356;2023-07-29T05:31:10;17.70;99.90
10296;DHT22;5193;51.032;6.356;2023-07-29T05:33:36;17.70;99.90
10296;DHT22;5193;51.032;6.356;2023-07-29T05:36:02;17.70;99.90
10296;DHT22;5193;51.032;6.356;2023-07-29T05:38:28;17.70;99.90
10296;DHT22;5193;51.032;6.356;2023-07-29T05:40:54;17.70;99.90
10296;DHT22;5193;51.032;6.356;2023-07-29T05:43:19;17.70;99.90
10296;DHT22;5193;51.032;6.356;2023-07-29T05:45:45;17.70;99.90
10296;DHT22;5193;51.032;6.356;2023-07-29T05:48:11;17.70;99.90
10296;DHT22;5193;51.032;6.356;2023-07-29T05:50:37;17.70;99.90
10296;DHT22;5193;51.032;6.356;2023-07-29T05:53:02;17.70;99.90
10296;DHT22;5193;51.032;6.356;2023-07-29T05:55:28;17.70;99.90
10296;DHT22;5193;51.032;6.356;2023-07-29T05:57:53;17.70;99.90
10296;DHT22;5193;51.032;6.356;2023-07-29T06:00:20;17.70;99.90
10296;DHT22;5193;51.032;6.356;2023-07-29T06:02:46;17.70;99.90
10296;DHT22;5193;51.032;6.356;2023-07-29T06:05:11;17.70;99.90
10296;DHT22;5193;51.032;6.356;2023-07-29T06:07:37;17.70;99.90
10296;DHT22;5193;51.032;6.356;2023-07-29T06:10:03;17.70;99.90
10296;DHT22;5193;51.032;6.356;2023-07-29T06:12:29;17.80;99.90
10296;DHT22;5193;51.032;6.356;2023-07-29T06:14:55;17.80;99.90
10296;DHT22;5193;51.032;6.356;2023-07-29T06:17:20;17.90;99.90
10296;DHT22;5193;51.032;6.356;2023-07-29T06:19:46;17.90;99.90
10296;DHT22;5193;51.032;6.356;2023-07-29T06:22:12;17.90;99.90
10296;DHT22;5193;51.032;6.356;2023-07-29T06:24:37;18.00;99.90
10296;DHT22;5193;51.032;6.356;2023-07-29T06:27:03;18.00;99.90
10296;DHT22;5193;51.032;6.356;2023-07-29T06:29:29;18.10;99.90
10296;DHT22;5193;51.032;6.356;2023-07-29T06:31:54;18.10;99.90
10296;DHT22;5193;51.032;6.356;2023-07-29T06:34:20;18.20;99.90
10296;DHT22;5193;51.032;6.356;2023-07-29T06:36:46;18.40;99.90
10296;DHT22;5193;51.032;6.356;2023-07-29T06:39:11;18.50;99.90
10296;DHT22;5193;51.032;6.356;2023-07-29T06:41:37;18.50;99.90
10296;DHT22;5193;51.032;6.356;2023-07-29T06:44:03;18.60;99.90
10296;DHT22;5193;51.032;6.356;2023-07-29T06:46:29;18.60;99.90
10296;DHT22;5193;51.032;6.356;2023-07-29T06:48:55;18.70;99.90
10296;DHT22;5193;51.032;6.356;2023-07-29T06:51:20;18.70;99.90
10296;DHT22;5193;51.032;6.356;2023-07-29T06:53:46;18.80;99.90
10296;DHT22;5193;51.032;6.356;2023-07-29T06:56:11;18.90;99.90
10296;DHT22;5193;51.032;6.356;2023-07-29T06:58:37;19.00;99.90
10296;DHT22;5193;51.032;6.356;2023-07-29T07:01:03;19.10;99.90
10296;DHT22;5193;51.032;6.356;2023-07-29T07:03:28;19.30;99.90
10296;DHT22;5193;51.032;6.356;2023-07-29T07:05:54;19.40;99.90
10296;DHT22;5193;51.032;6.356;2023-07-29T07:08:20;19.40;99.90
10296;DHT22;5193;51.032;6.356;2023-07-29T07:10:47;19.50;99.90
10296;DHT22;5193;51.032;6.356;2023-07-29T07:13:13;19.60;99.90
10296;DHT22;5193;51.032;6.356;2023-07-29T07:15:38;19.70;99.90
10296;DHT22;5193;51.032;6.356;2023-07-29T07:18:04;19.80;99.90
10296;DHT22;5193;51.032;6.356;2023-07-29T07:20:30;19.80;99.90
10296;DHT22;5193;51.032;6.356;2023-07-29T07:22:55;19.90;99.90
10296;DHT22;5193;51.032;6.356;2023-07-29T07:25:21;20.00;99.90
10296;DHT22;5193;51.032;6.356;2023-07-29T07:27:47;20.00;99.90
10296;DHT22;5193;51.032;6.356;2023-07-29T07:30:14;19.90;99.90
10296;DHT22;5193;51.032;6.356;2023-07-29T07:32:40;19.90;99.90
10296;DHT22;5193;51.032;6.356;2023-07-29T07:35:05;19.90;99.90
10296;DHT22;5193;51.032;6.356;2023-07-29T07:37:31;19.90;99.90
10296;DHT22;5193;51.032;6.356;2023-07-29T07:39:57;20.00;99.90
10296;DHT22;5193;51.032;6.356;2023-07-29T07:42:22;20.20;99.90
10296;DHT22;5193;51.032;6.356;2023-07-29T07:44:48;20.30;99.90
10296;DHT22;5193;51.032;6.356;2023-07-29T07:47:14;20.50;99.90
10296;DHT22;5193;51.032;6.356;2023-07-29T07:49:39;20.80;99.90
10296;DHT22;5193;51.032;6.356;2023-07-29T07:52:05;21.00;99.90
10296;DHT22;5193;51.032;6.356;2023-07-29T07:54:31;21.20;99.90
10296;DHT22;5193;51.032;6.356;2023-07-29T07:56:56;21.30;99.90
10296;DHT22;5193;51.032;6.356;2023-07-29T07:59:22;21.40;99.90
10296;DHT22;5193;51.032;6.356;2023-07-29T08:01:48;21.50;99.90
10296;DHT22;5193;51.032;6.356;2023-07-29T08:04:13;21.50;99.90
10296;DHT22;5193;51.032;6.356;2023-07-29T08:06:39;21.60;99.90
10296;DHT22;5193;51.032;6.356;2023-07-29T08:09:05;21.80;99.90
10296;DHT22;5193;51.032;6.356;2023-07-29T08:11:31;21.80;99.90
10296;DHT22;5193;51.032;6.356;2023-07-29T08:13:58;21.90;99.90
10296;DHT22;5193;51.032;6.356;2023-07-29T08:16:24;21.90;99.90
10296;DHT22;5193;51.032;6.356;2023-07-29T08:18:49;22.00;99.90
10296;DHT22;5193;51.032;6.356;2023-07-29T08:21:15;22.10;99.90
10296;DHT22;5193;51.032;6.356;2023-07-29T08:23:41;22.20;99.90
10296;DHT22;5193;51.032;6.356;2023-07-29T08:26:06;22.40;99.90
10296;DHT22;5193;51.032;6.356;2023-07-29T08:28:35;22.60;99.90
10296;DHT22;5193;51.032;6.356;2023-07-29T08:31:00;22.70;99.90
10296;DHT22;5193;51.032;6.356;2023-07-29T08:33:26;22.80;99.90
10296;DHT22;5193;51.032;6.356;2023-07-29T08:35:52;22.90;99.90
10296;DHT22;5193;51.032;6.356;2023-07-29T08:38:19;22.90;99.90
10296;DHT22;5193;51.032;6.356;2023-07-29T08:41:26;22.80;99.90
10296;DHT22;5193;51.032;6.356;2023-07-29T08:44:06;22.60;99.90
10296;DHT22;5193;51.032;6.356;2023-07-29T08:46:34;22.50;99.90
10296;DHT22;5193;51.032;6.356;2023-07-29T08:49:01;22.60;99.90
10296;DHT22;5193;51.032;6.356;2023-07-29T08:51:28;22.70;99.90
10296;DHT22;5193;51.032;6.356;2023-07-29T08:53:55;22.70;99.90
10296;DHT22;5193;51.032;6.356;2023-07-29T08:56:21;22.80;99.90
10296;DHT22;5193;51.032;6.356;2023-07-29T08:59:09;22.80;99.90
10296;DHT22;5193;51.032;6.356;2023-07-29T09:01:56;22.90;99.90
10296;DHT22;5193;51.032;6.356;2023-07-29T09:04:23;22.80;99.90
10296;DHT22;5193;51.032;6.356;2023-07-29T09:06:50;22.70;99.90
10296;DHT22;5193;51.032;6.356;2023-07-29T09:09:16;22.70;99.90
10296;DHT22;5193;51.032;6.356;2023-07-29T09:11:41;22.70;99.90
10296;DHT22;5193;51.032;6.356;2023-07-29T09:14:09;22.70;99.90
10296;DHT22;5193;51.032;6.356;2023-07-29T09:16:47;22.70;99.90
10296;DHT22;5193;51.032;6.356;2023-07-29T09:19:14;22.70;99.90
10296;DHT22;5193;51.032;6.356;2023-07-29T09:21:41;22.80;99.90
10296;DHT22;5193;51.032;6.356;2023-07-29T09:24:10;22.90;99.90
10296;DHT22;5193;51.032;6.356;2023-07-29T09:26:52;22.90;99.90
10296;DHT22;5193;51.032;6.356;2023-07-29T09:29:27;22.90;99.90
10296;DHT22;5193;51.032;6.356;2023-07-29T09:32:24;22.80;99.90
10296;DHT22;5193;51.032;6.356;2023-07-29T09:34:52;22.90;99.90
10296;DHT22;5193;51.032;6.356;2023-07-29T09:37:34;22.90;99.90
10296;DHT22;5193;51.032;6.356;2023-07-29T09:40:00;23.10;99.90
10296;DHT22;5193;51.032;6.356;2023-07-29T09:42:27;23.30;99.90
10296;DHT22;5193;51.032;6.356;2023-07-29T09:44:57;23.40;99.90
10296;DHT22;5193;51.032;6.356;2023-07-29T09:47:26;23.40;99.90
10296;DHT22;5193;51.032;6.356;2023-07-29T09:49:53;23.30;99.90
10296;DHT22;5193;51.032;6.356;2023-07-29T09:52:22;23.30;99.90
10296;DHT22;5193;51.032;6.356;2023-07-29T09:54:49;23.30;99.90
10296;DHT22;5193;51.032;6.356;2023-07-29T09:57:19;23.30;99.90
10296;DHT22;5193;51.032;6.356;2023-07-29T09:59:55;23.30;99.90
10296;DHT22;5193;51.032;6.356;2023-07-29T10:02:22;23.30;99.90
10296;DHT22;5193;51.032;6.356;2023-07-29T10:04:49;23.30;99.90
10296;DHT22;5193;51.032;6.356;2023-07-29T10:07:16;23.30;99.90
10296;DHT22;5193;51.032;6.356;2023-07-29T10:09:45;23.20;99.90
10296;DHT22;5193;51.032;6.356;2023-07-29T10:12:11;23.10;99.90
10296;DHT22;5193;51.032;6.356;2023-07-29T10:14:38;23.10;99.90
10296;DHT22;5193;51.032;6.356;2023-07-29T10:17:06;23.00;99.90
10296;DHT22;5193;51.032;6.356;2023-07-29T10:19:32;22.90;99.90
10296;DHT22;5193;51.032;6.356;2023-07-29T10:22:01;23.00;99.90
10296;DHT22;5193;51.032;6.356;2023-07-29T10:24:36;23.20;99.90
10296;DHT22;5193;51.032;6.356;2023-07-29T10:27:07;23.40;99.90
10296;DHT22;5193;51.032;6.356;2023-07-29T10:29:38;23.60;99.90
10296;DHT22;5193;51.032;6.356;2023-07-29T10:32:05;23.80;99.90
10296;DHT22;5193;51.032;6.356;2023-07-29T10:34:33;23.90;99.90
10296;DHT22;5193;51.032;6.356;2023-07-29T10:37:03;24.20;99.90
10296;DHT22;5193;51.032;6.356;2023-07-29T10:39:38;24.30;99.90
10296;DHT22;5193;51.032;6.356;2023-07-29T10:42:06;24.40;99.90
10296;DHT22;5193;51.032;6.356;2023-07-29T10:47:18;24.50;99.90
10296;DHT22;5193;51.032;6.356;2023-07-29T10:49:45;24.50;99.90
10296;DHT22;5193;51.032;6.356;2023-07-29T10:52:16;24.50;99.90
10296;DHT22;5193;51.032;6.356;2023-07-29T10:54:47;24.40;99.90
10296;DHT22;5193;51.032;6.356;2023-07-29T11:00:57;24.40;99.90
10296;DHT22;5193;51.032;6.356;2023-07-29T11:03:24;24.30;99.90
10296;DHT22;5193;51.032;6.356;2023-07-29T11:06:07;24.40;99.90
10296;DHT22;5193;51.032;6.356;2023-07-29T11:08:39;24.40;99.90
10296;DHT22;5193;51.032;6.356;2023-07-29T11:11:12;24.50;99.90
10296;DHT22;5193;51.032;6.356;2023-07-29T11:13:38;24.50;99.90
10296;DHT22;5193;51.032;6.356;2023-07-29T11:16:06;24.50;99.90
10296;DHT22;5193;51.032;6.356;2023-07-29T11:18:36;24.50;99.90
10296;DHT22;5193;51.032;6.356;2023-07-29T11:21:03;24.50;99.90
10296;DHT22;5193;51.032;6.356;2023-07-29T11:23:31;24.50;99.90
10296;DHT22;5193;51.032;6.356;2023-07-29T11:25:59;24.50;99.90
10296;DHT22;5193;51.032;6.356;2023-07-29T11:28:29;24.50;99.90
10296;DHT22;5193;51.032;6.356;2023-07-29T11:30:58;24.60;99.90
10296;DHT22;5193;51.032;6.356;2023-07-29T11:33:26;24.70;99.90
10296;DHT22;5193;51.032;6.356;2023-07-29T11:35:54;24.80;99.90
10296;DHT22;5193;51.032;6.356;2023-07-29T11:38:22;24.80;99.90
10296;DHT22;5193;51.032;6.356;2023-07-29T11:40:58;24.80;99.90
10296;DHT22;5193;51.032;6.356;2023-07-29T11:43:26;24.90;99.90
10296;DHT22;5193;51.032;6.356;2023-07-29T11:45:55;24.90;99.90
10296;DHT22;5193;51.032;6.356;2023-07-29T11:48:32;24.80;99.90
10296;DHT22;5193;51.032;6.356;2023-07-29T11:50:59;24.80;99.90
10296;DHT22;5193;51.032;6.356;2023-07-29T11:53:30;24.80;99.90
10296;DHT22;5193;51.032;6.356;2023-07-29T11:55:57;24.90;99.90
10296;DHT22;5193;51.032;6.356;2023-07-29T11:58:23;25.00;99.90
10296;DHT22;5193;51.032;6.356;2023-07-29T12:00:54;25.10;99.90
10296;DHT22;5193;51.032;6.356;2023-07-29T12:03:22;25.10;99.90
10296;DHT22;5193;51.032;6.356;2023-07-29T12:05:50;25.10;99.90
10296;DHT22;5193;51.032;6.356;2023-07-29T12:08:16;25.10;99.90
10296;DHT22;5193;51.032;6.356;2023-07-29T12:10:45;25.10;99.90
10296;DHT22;5193;51.032;6.356;2023-07-29T12:13:12;25.20;99.90
10296;DHT22;5193;51.032;6.356;2023-07-29T12:15:39;25.30;99.90
10296;DHT22;5193;51.032;6.356;2023-07-29T12:18:09;25.40;99.90
10296;DHT22;5193;51.032;6.356;2023-07-29T12:20:36;25.40;99.90
10296;DHT22;5193;51.032;6.356;2023-07-29T12:23:08;25.40;99.90
10296;DHT22;5193;51.032;6.356;2023-07-29T12:25:36;25.20;99.90
10296;DHT22;5193;51.032;6.356;2023-07-29T12:28:06;25.20;99.90
10296;DHT22;5193;51.032;6.356;2023-07-29T12:30:32;25.10;99.90
10296;DHT22;5193;51.032;6.356;2023-07-29T12:32:58;25.00;99.90
10296;DHT22;5193;51.032;6.356;2023-07-29T12:35:25;25.00;99.90
10296;DHT22;5193;51.032;6.356;2023-07-29T12:37:59;24.90;99.90
10296;DHT22;5193;51.032;6.356;2023-07-29T12:40:26;24.70;99.90
10296;DHT22;5193;51.032;6.356;2023-07-29T12:43:10;24.70;99.90
10296;DHT22;5193;51.032;6.356;2023-07-29T12:45:56;24.70;99.90
10296;DHT22;5193;51.032;6.356;2023-07-29T12:48:40;24.50;99.90
10296;DHT22;5193;51.032;6.356;2023-07-29T12:51:08;24.40;99.90
10296;DHT22;5193;51.032;6.356;2023-07-29T12:53:33;24.30;99.90
10296;DHT22;5193;51.032;6.356;2023-07-29T12:55:59;24.10;99.90
10296;DHT22;5193;51.032;6.356;2023-07-29T12:58:26;24.00;99.90
10296;DHT22;5193;51.032;6.356;2023-07-29T13:00:52;23.90;99.90
10296;DHT22;5193;51.032;6.356;2023-07-29T13:03:17;23.70;99.90
10296;DHT22;5193;51.032;6.356;2023-07-29T13:05:43;23.50;99.90
10296;DHT22;5193;51.032;6.356;2023-07-29T13:08:09;23.40;99.90
10296;DHT22;5193;51.032;6.356;2023-07-29T13:10:36;23.20;99.90
10296;DHT22;5193;51.032;6.356;2023-07-29T13:13:01;23.00;99.90
10296;DHT22;5193;51.032;6.356;2023-07-29T13:15:27;22.90;99.90
10296;DHT22;5193;51.032;6.356;2023-07-29T13:17:53;22.80;99.90
10296;DHT22;5193;51.032;6.356;2023-07-29T13:20:18;22.70;99.90
10296;DHT22;5193;51.032;6.356;2023-07-29T13:22:44;22.50;99.90
10296;DHT22;5193;51.032;6.356;2023-07-29T13:25:10;22.30;99.90
10296;DHT22;5193;51.032;6.356;2023-07-29T13:27:35;22.20;99.90
10296;DHT22;5193;51.032;6.356;2023-07-29T13:30:01;21.90;99.90
10296;DHT22;5193;51.032;6.356;2023-07-29T13:32:26;21.70;99.90
10296;DHT22;5193;51.032;6.356;2023-07-29T13:34:52;21.50;99.90
10296;DHT22;5193;51.032;6.356;2023-07-29T13:37:18;21.30;99.90
10296;DHT22;5193;51.032;6.356;2023-07-29T13:39:44;21.20;99.90
10296;DHT22;5193;51.032;6.356;2023-07-29T13:42:09;21.00;99.90
10296;DHT22;5193;51.032;6.356;2023-07-29T13:44:35;21.00;99.90
10296;DHT22;5193;51.032;6.356;2023-07-29T13:47:00;21.00;99.90
10296;DHT22;5193;51.032;6.356;2023-07-29T13:49:26;21.00;99.90
10296;DHT22;5193;51.032;6.356;2023-07-29T13:51:52;21.10;99.90
10296;DHT22;5193;51.032;6.356;2023-07-29T13:54:17;21.20;99.90
10296;DHT22;5193;51.032;6.356;2023-07-29T13:56:43;21.40;99.90
10296;DHT22;5193;51.032;6.356;2023-07-29T13:59:09;21.60;99.90
10296;DHT22;5193;51.032;6.356;2023-07-29T14:01:34;21.80;99.90
10296;DHT22;5193;51.032;6.356;2023-07-29T14:04:00;22.00;99.90
10296;DHT22;5193;51.032;6.356;2023-07-29T14:06:26;22.20;99.90
10296;DHT22;5193;51.032;6.356;2023-07-29T14:08:51;22.20;99.90
10296;DHT22;5193;51.032;6.356;2023-07-29T14:11:17;22.30;99.90
10296;DHT22;5193;51.032;6.356;2023-07-29T14:13:42;22.30;99.90
10296;DHT22;5193;51.032;6.356;2023-07-29T14:16:08;22.30;99.90
10296;DHT22;5193;51.032;6.356;2023-07-29T14:18:34;22.40;99.90
10296;DHT22;5193;51.032;6.356;2023-07-29T14:20:59;22.40;99.90
10296;DHT22;5193;51.032;6.356;2023-07-29T14:23:25;22.50;99.90
10296;DHT22;5193;51.032;6.356;2023-07-29T14:25:50;22.50;99.90
10296;DHT22;5193;51.032;6.356;2023-07-29T14:28:16;22.50;99.90
10296;DHT22;5193;51.032;6.356;2023-07-29T14:30:41;22.50;99.90
10296;DHT22;5193;51.032;6.356;2023-07-29T14:33:07;22.50;99.90
10296;DHT22;5193;51.032;6.356;2023-07-29T14:35:33;22.60;99.90
10296;DHT22;5193;51.032;6.356;2023-07-29T14:37:58;22.70;99.90
10296;DHT22;5193;51.032;6.356;2023-07-29T14:40:24;22.70;99.90
10296;DHT22;5193;51.032;6.356;2023-07-29T14:42:50;22.90;99.90
10296;DHT22;5193;51.032;6.356;2023-07-29T14:45:15;23.10;99.90
10296;DHT22;5193;51.032;6.356;2023-07-29T14:47:42;23.20;99.90
10296;DHT22;5193;51.032;6.356;2023-07-29T14:50:07;23.30;99.90
10296;DHT22;5193;51.032;6.356;2023-07-29T14:52:33;23.40;99.90
10296;DHT22;5193;51.032;6.356;2023-07-29T14:54:59;23.50;99.90
10296;DHT22;5193;51.032;6.356;2023-07-29T14:57:25;23.40;99.90
10296;DHT22;5193;51.032;6.356;2023-07-29T14:59:50;23.40;99.90
10296;DHT22;5193;51.032;6.356;2023-07-29T15:02:16;23.40;99.90
10296;DHT22;5193;51.032;6.356;2023-07-29T15:04:42;23.40;99.90
10296;DHT22;5193;51.032;6.356;2023-07-29T15:07:08;23.40;99.90
10296;DHT22;5193;51.032;6.356;2023-07-29T15:09:34;23.40;99.90
10296;DHT22;5193;51.032;6.356;2023-07-29T15:12:00;23.40;99.90
10296;DHT22;5193;51.032;6.356;2023-07-29T15:14:25;23.40;99.90
10296;DHT22;5193;51.032;6.356;2023-07-29T15:16:51;23.50;99.90
10296;DHT22;5193;51.032;6.356;2023-07-29T15:19:17;23.60;99.90
10296;DHT22;5193;51.032;6.356;2023-07-29T15:21:42;23.70;99.90
10296;DHT22;5193;51.032;6.356;2023-07-29T15:24:08;23.80;99.90
10296;DHT22;5193;51.032;6.356;2023-07-29T15:26:34;23.90;99.90
10296;DHT22;5193;51.032;6.356;2023-07-29T15:29:00;24.00;99.90
10296;DHT22;5193;51.032;6.356;2023-07-29T15:31:26;24.00;99.90
10296;DHT22;5193;51.032;6.356;2023-07-29T15:33:51;23.90;99.90
10296;DHT22;5193;51.032;6.356;2023-07-29T15:36:17;23.90;99.90
10296;DHT22;5193;51.032;6.356;2023-07-29T15:38:43;23.90;99.90
10296;DHT22;5193;51.032;6.356;2023-07-29T15:41:09;24.00;99.90
10296;DHT22;5193;51.032;6.356;2023-07-29T15:43:34;24.10;99.90
10296;DHT22;5193;51.032;6.356;2023-07-29T15:46:00;24.10;99.90
10296;DHT22;5193;51.032;6.356;2023-07-29T15:48:26;24.10;99.90
10296;DHT22;5193;51.032;6.356;2023-07-29T15:50:51;24.10;99.90
10296;DHT22;5193;51.032;6.356;2023-07-29T15:53:17;24.20;99.90
10296;DHT22;5193;51.032;6.356;2023-07-29T15:55:43;24.30;99.90
10296;DHT22;5193;51.032;6.356;2023-07-29T15:58:08;24.30;99.90
10296;DHT22;5193;51.032;6.356;2023-07-29T16:00:34;24.30;99.90
10296;DHT22;5193;51.032;6.356;2023-07-29T16:02:59;24.30;99.90
10296;DHT22;5193;51.032;6.356;2023-07-29T16:05:25;24.40;99.90
10296;DHT22;5193;51.032;6.356;2023-07-29T16:07:51;24.60;99.90
10296;DHT22;5193;51.032;6.356;2023-07-29T16:10:19;24.60;99.90
10296;DHT22;5193;51.032;6.356;2023-07-29T16:12:46;24.70;99.90
10296;DHT22;5193;51.032;6.356;2023-07-29T16:32:34;25.10;99.90
10296;DHT22;5193;51.032;6.356;2023-07-29T17:20:01;24.50;99.90
10296;DHT22;5193;51.032;6.356;2023-07-29T17:22:27;24.60;99.90
10296;DHT22;5193;51.032;6.356;2023-07-29T17:24:53;24.70;99.90
10296;DHT22;5193;51.032;6.356;2023-07-29T17:27:19;24.80;99.90
10296;DHT22;5193;51.032;6.356;2023-07-29T17:29:44;24.90;99.90
10296;DHT22;5193;51.032;6.356;2023-07-29T17:32:11;25.00;99.90
10296;DHT22;5193;51.032;6.356;2023-07-29T17:34:37;25.10;99.90
10296;DHT22;5193;51.032;6.356;2023-07-29T17:37:02;25.00;99.90
10296;DHT22;5193;51.032;6.356;2023-07-29T17:39:28;24.90;99.90
10296;DHT22;5193;51.032;6.356;2023-07-29T17:41:54;24.80;99.90
10296;DHT22;5193;51.032;6.356;2023-07-29T17:44:19;24.70;99.90
10296;DHT22;5193;51.032;6.356;2023-07-29T17:46:45;24.50;99.90
10296;DHT22;5193;51.032;6.356;2023-07-29T17:49:11;24.30;99.90
10296;DHT22;5193;51.032;6.356;2023-07-29T17:51:36;24.00;99.90
10296;DHT22;5193;51.032;6.356;2023-07-29T17:54:02;23.80;99.90
10296;DHT22;5193;51.032;6.356;2023-07-29T17:56:28;23.60;99.90
10296;DHT22;5193;51.032;6.356;2023-07-29T17:58:54;23.40;99.90
10296;DHT22;5193;51.032;6.356;2023-07-29T18:01:20;23.20;99.90
10296;DHT22;5193;51.032;6.356;2023-07-29T18:03:46;23.10;99.90
10296;DHT22;5193;51.032;6.356;2023-07-29T18:06:12;22.90;99.90
10296;DHT22;5193;51.032;6.356;2023-07-29T18:08:38;22.70;99.90
10296;DHT22;5193;51.032;6.356;2023-07-29T18:11:04;22.50;99.90
10296;DHT22;5193;51.032;6.356;2023-07-29T18:13:29;22.40;99.90
10296;DHT22;5193;51.032;6.356;2023-07-29T18:15:55;22.30;99.90
10296;DHT22;5193;51.032;6.356;2023-07-29T18:18:23;22.30;99.90
10296;DHT22;5193;51.032;6.356;2023-07-29T18:20:49;22.20;99.90
10296;DHT22;5193;51.032;6.356;2023-07-29T18:23:15;22.20;99.90
10296;DHT22;5193;51.032;6.356;2023-07-29T18:25:41;22.10;99.90
10296;DHT22;5193;51.032;6.356;2023-07-29T18:28:07;22.10;99.90
10296;DHT22;5193;51.032;6.356;2023-07-29T18:30:36;22.00;99.90
10296;DHT22;5193;51.032;6.356;2023-07-29T18:33:02;22.00;99.90
10296;DHT22;5193;51.032;6.356;2023-07-29T18:35:29;21.90;99.90
10296;DHT22;5193;51.032;6.356;2023-07-29T18:37:54;21.80;99.90